sensor_id;sensor_type;location;lat;lon;timestamp;P1;durP1;ratioP1;P2;durP2;ratioP2
77234;SDS011;66253;50.526;14.974;2023-03-18T00:00:16;6.90;;;2.60;;
77234;SDS011;66253;50.526;14.974;2023-03-18T00:02:48;6.10;;;2.90;;
77234;SDS011;66253;50.526;14.974;2023-03-18T00:05:35;9.10;;;3.70;;
77234;SDS011;66253;50.526;14.974;2023-03-18T00:08:05;11.70;;;5.40;;
77234;SDS011;66253;50.526;14.974;2023-03-18T00:10:39;13.50;;;5.50;;
77234;SDS011;66253;50.526;14.974;2023-03-18T00:13:05;11.30;;;6.10;;
77234;SDS011;66253;50.526;14.974;2023-03-18T00:15:33;12.60;;;6.10;;
77234;SDS011;66253;50.526;14.974;2023-03-18T00:18:05;12.30;;;3.90;;
77234;SDS011;66253;50.526;14.974;2023-03-18T00:20:31;11.10;;;3.60;;
77234;SDS011;66253;50.526;14.974;2023-03-18T00:23:07;7.00;;;2.50;;
77234;SDS011;66253;50.526;14.974;2023-03-18T00:25:33;6.60;;;2.80;;
77234;SDS011;66253;50.526;14.974;2023-03-18T00:28:04;7.10;;;2.20;;
77234;SDS011;66253;50.526;14.974;2023-03-18T00:30:35;7.50;;;3.00;;
77234;SDS011;66253;50.526;14.974;2023-03-18T00:33:05;7.70;;;2.70;;
77234;SDS011;66253;50.526;14.974;2023-03-18T00:35:38;6.10;;;2.60;;
77234;SDS011;66253;50.526;14.974;2023-03-18T00:38:04;9.00;;;3.30;;
77234;SDS011;66253;50.526;14.974;2023-03-18T00:40:32;9.00;;;3.50;;
77234;SDS011;66253;50.526;14.974;2023-03-18T00:43:26;7.80;;;2.40;;
77234;SDS011;66253;50.526;14.974;2023-03-18T00:46:14;9.10;;;3.30;;
77234;SDS011;66253;50.526;14.974;2023-03-18T00:49:04;7.00;;;2.80;;
77234;SDS011;66253;50.526;14.974;2023-03-18T00:51:36;8.10;;;2.70;;
77234;SDS011;66253;50.526;14.974;2023-03-18T00:54:04;6.30;;;3.30;;
77234;SDS011;66253;50.526;14.974;2023-03-18T00:56:32;8.50;;;3.50;;
77234;SDS011;66253;50.526;14.974;2023-03-18T00:59:41;5.80;;;2.80;;
77234;SDS011;66253;50.526;14.974;2023-03-18T01:02:18;9.00;;;3.00;;
77234;SDS011;66253;50.526;14.974;2023-03-18T01:04:44;6.90;;;2.50;;
77234;SDS011;66253;50.526;14.974;2023-03-18T01:07:13;6.70;;;2.70;;
77234;SDS011;66253;50.526;14.974;2023-03-18T01:09:39;8.50;;;4.80;;
77234;SDS011;66253;50.526;14.974;2023-03-18T01:12:09;5.20;;;2.20;;
77234;SDS011;66253;50.526;14.974;2023-03-18T01:14:44;8.10;;;2.60;;
77234;SDS011;66253;50.526;14.974;2023-03-18T01:17:11;5.90;;;2.10;;
77234;SDS011;66253;50.526;14.974;2023-03-18T01:19:39;5.40;;;1.80;;
77234;SDS011;66253;50.526;14.974;2023-03-18T01:22:13;6.20;;;2.10;;
77234;SDS011;66253;50.526;14.974;2023-03-18T01:24:42;6.40;;;2.40;;
77234;SDS011;66253;50.526;14.974;2023-03-18T01:27:14;6.20;;;2.50;;
77234;SDS011;66253;50.526;14.974;2023-03-18T01:29:54;6.80;;;2.70;;
77234;SDS011;66253;50.526;14.974;2023-03-18T01:35:13;5.80;;;2.30;;
77234;SDS011;66253;50.526;14.974;2023-03-18T01:37:39;5.60;;;2.20;;
77234;SDS011;66253;50.526;14.974;2023-03-18T01:40:11;10.90;;;3.70;;
77234;SDS011;66253;50.526;14.974;2023-03-18T01:42:41;7.90;;;3.60;;
77234;SDS011;66253;50.526;14.974;2023-03-18T01:45:14;12.40;;;5.00;;
77234;SDS011;66253;50.526;14.974;2023-03-18T01:47:44;7.50;;;3.60;;
77234;SDS011;66253;50.526;14.974;2023-03-18T01:50:15;7.10;;;3.10;;
77234;SDS011;66253;50.526;14.974;2023-03-18T01:52:58;7.10;;;2.90;;
77234;SDS011;66253;50.526;14.974;2023-03-18T01:55:28;5.70;;;2.20;;
77234;SDS011;66253;50.526;14.974;2023-03-18T01:58:38;6.00;;;2.00;;
77234;SDS011;66253;50.526;14.974;2023-03-18T02:04:33;6.00;;;2.10;;
77234;SDS011;66253;50.526;14.974;2023-03-18T02:07:16;5.30;;;2.60;;
77234;SDS011;66253;50.526;14.974;2023-03-18T02:09:48;7.70;;;2.30;;
77234;SDS011;66253;50.526;14.974;2023-03-18T02:12:25;9.80;;;4.30;;
77234;SDS011;66253;50.526;14.974;2023-03-18T02:14:57;10.80;;;4.40;;
77234;SDS011;66253;50.526;14.974;2023-03-18T02:22:08;6.20;;;2.40;;
77234;SDS011;66253;50.526;14.974;2023-03-18T02:28:04;7.80;;;3.20;;
77234;SDS011;66253;50.526;14.974;2023-03-18T02:30:39;8.80;;;3.10;;
77234;SDS011;66253;50.526;14.974;2023-03-18T02:33:10;9.90;;;4.80;;
77234;SDS011;66253;50.526;14.974;2023-03-18T02:35:39;11.30;;;5.50;;
77234;SDS011;66253;50.526;14.974;2023-03-18T02:38:12;8.80;;;3.90;;
77234;SDS011;66253;50.526;14.974;2023-03-18T02:40:47;7.10;;;3.30;;
77234;SDS011;66253;50.526;14.974;2023-03-18T02:43:24;7.40;;;3.70;;
77234;SDS011;66253;50.526;14.974;2023-03-18T02:48:51;10.60;;;4.20;;
77234;SDS011;66253;50.526;14.974;2023-03-18T02:51:18;11.10;;;5.40;;
77234;SDS011;66253;50.526;14.974;2023-03-18T02:53:45;13.00;;;5.20;;
77234;SDS011;66253;50.526;14.974;2023-03-18T02:56:12;10.80;;;4.70;;
77234;SDS011;66253;50.526;14.974;2023-03-18T02:58:49;11.60;;;4.50;;
77234;SDS011;66253;50.526;14.974;2023-03-18T03:01:15;7.30;;;3.20;;
77234;SDS011;66253;50.526;14.974;2023-03-18T03:03:41;9.90;;;4.00;;
77234;SDS011;66253;50.526;14.974;2023-03-18T03:06:06;10.00;;;4.30;;
77234;SDS011;66253;50.526;14.974;2023-03-18T03:08:46;8.40;;;4.50;;
77234;SDS011;66253;50.526;14.974;2023-03-18T03:11:12;8.40;;;4.20;;
77234;SDS011;66253;50.526;14.974;2023-03-18T03:13:41;15.90;;;5.70;;
77234;SDS011;66253;50.526;14.974;2023-03-18T03:16:13;15.10;;;6.10;;
77234;SDS011;66253;50.526;14.974;2023-03-18T03:18:48;11.00;;;3.70;;
77234;SDS011;66253;50.526;14.974;2023-03-18T03:21:17;8.10;;;2.90;;
77234;SDS011;66253;50.526;14.974;2023-03-18T03:23:45;7.10;;;2.90;;
77234;SDS011;66253;50.526;14.974;2023-03-18T03:26:12;10.30;;;4.00;;
77234;SDS011;66253;50.526;14.974;2023-03-18T03:28:39;8.00;;;2.90;;
77234;SDS011;66253;50.526;14.974;2023-03-18T03:31:06;9.20;;;3.10;;
77234;SDS011;66253;50.526;14.974;2023-03-18T03:33:34;8.40;;;3.10;;
77234;SDS011;66253;50.526;14.974;2023-03-18T03:36:04;7.60;;;2.90;;
77234;SDS011;66253;50.526;14.974;2023-03-18T03:38:39;9.20;;;3.90;;
77234;SDS011;66253;50.526;14.974;2023-03-18T03:41:06;6.20;;;2.50;;
77234;SDS011;66253;50.526;14.974;2023-03-18T03:43:35;7.60;;;2.50;;
77234;SDS011;66253;50.526;14.974;2023-03-18T03:46:02;6.30;;;2.60;;
77234;SDS011;66253;50.526;14.974;2023-03-18T03:51:04;6.70;;;2.70;;
77234;SDS011;66253;50.526;14.974;2023-03-18T03:53:33;4.90;;;1.80;;
77234;SDS011;66253;50.526;14.974;2023-03-18T03:56:02;5.90;;;2.60;;
77234;SDS011;66253;50.526;14.974;2023-03-18T03:58:38;12.20;;;5.80;;
77234;SDS011;66253;50.526;14.974;2023-03-18T04:01:07;13.90;;;7.20;;
77234;SDS011;66253;50.526;14.974;2023-03-18T04:03:39;10.50;;;6.60;;
77234;SDS011;66253;50.526;14.974;2023-03-18T04:06:05;13.20;;;4.50;;
77234;SDS011;66253;50.526;14.974;2023-03-18T04:08:40;8.60;;;3.30;;
77234;SDS011;66253;50.526;14.974;2023-03-18T04:11:32;7.00;;;2.90;;
77234;SDS011;66253;50.526;14.974;2023-03-18T04:13:59;7.20;;;2.90;;
77234;SDS011;66253;50.526;14.974;2023-03-18T04:16:29;7.70;;;2.40;;
77234;SDS011;66253;50.526;14.974;2023-03-18T04:21:54;5.90;;;2.40;;
77234;SDS011;66253;50.526;14.974;2023-03-18T04:24:21;5.20;;;1.90;;
77234;SDS011;66253;50.526;14.974;2023-03-18T04:26:49;8.90;;;2.80;;
77234;SDS011;66253;50.526;14.974;2023-03-18T04:29:20;6.00;;;2.70;;
77234;SDS011;66253;50.526;14.974;2023-03-18T04:31:50;6.70;;;2.60;;
77234;SDS011;66253;50.526;14.974;2023-03-18T04:34:26;7.80;;;3.50;;
77234;SDS011;66253;50.526;14.974;2023-03-18T04:40:01;7.40;;;3.80;;
77234;SDS011;66253;50.526;14.974;2023-03-18T04:42:29;7.90;;;3.00;;
77234;SDS011;66253;50.526;14.974;2023-03-18T04:44:55;6.70;;;2.80;;
77234;SDS011;66253;50.526;14.974;2023-03-18T04:47:22;9.40;;;3.60;;
77234;SDS011;66253;50.526;14.974;2023-03-18T04:49:57;8.90;;;3.30;;
77234;SDS011;66253;50.526;14.974;2023-03-18T04:52:34;10.00;;;3.40;;
77234;SDS011;66253;50.526;14.974;2023-03-18T04:54:59;5.90;;;2.30;;
77234;SDS011;66253;50.526;14.974;2023-03-18T04:57:26;5.60;;;2.40;;
77234;SDS011;66253;50.526;14.974;2023-03-18T04:59:52;5.60;;;1.80;;
77234;SDS011;66253;50.526;14.974;2023-03-18T05:02:26;5.70;;;2.00;;
77234;SDS011;66253;50.526;14.974;2023-03-18T05:04:52;5.50;;;1.90;;
77234;SDS011;66253;50.526;14.974;2023-03-18T05:07:21;5.10;;;1.90;;
77234;SDS011;66253;50.526;14.974;2023-03-18T05:10:08;7.60;;;2.40;;
77234;SDS011;66253;50.526;14.974;2023-03-18T05:12:40;6.10;;;2.90;;
77234;SDS011;66253;50.526;14.974;2023-03-18T05:15:48;6.70;;;2.50;;
77234;SDS011;66253;50.526;14.974;2023-03-18T05:18:36;5.90;;;2.40;;
77234;SDS011;66253;50.526;14.974;2023-03-18T05:21:09;6.90;;;2.60;;
77234;SDS011;66253;50.526;14.974;2023-03-18T05:23:38;6.80;;;2.50;;
77234;SDS011;66253;50.526;14.974;2023-03-18T05:26:06;5.30;;;2.90;;
77234;SDS011;66253;50.526;14.974;2023-03-18T05:28:36;10.40;;;3.40;;
77234;SDS011;66253;50.526;14.974;2023-03-18T05:31:03;8.90;;;3.40;;
77234;SDS011;66253;50.526;14.974;2023-03-18T05:33:30;5.20;;;2.70;;
77234;SDS011;66253;50.526;14.974;2023-03-18T05:35:57;6.00;;;2.20;;
77234;SDS011;66253;50.526;14.974;2023-03-18T05:38:23;6.20;;;2.40;;
77234;SDS011;66253;50.526;14.974;2023-03-18T05:40:49;5.80;;;2.50;;
77234;SDS011;66253;50.526;14.974;2023-03-18T05:43:21;9.70;;;3.80;;
77234;SDS011;66253;50.526;14.974;2023-03-18T05:45:47;14.30;;;4.30;;
77234;SDS011;66253;50.526;14.974;2023-03-18T05:48:14;8.60;;;3.30;;
77234;SDS011;66253;50.526;14.974;2023-03-18T05:50:48;6.10;;;2.20;;
77234;SDS011;66253;50.526;14.974;2023-03-18T05:53:13;7.40;;;2.50;;
77234;SDS011;66253;50.526;14.974;2023-03-18T05:55:41;6.40;;;2.60;;
77234;SDS011;66253;50.526;14.974;2023-03-18T05:58:08;5.90;;;2.50;;
77234;SDS011;66253;50.526;14.974;2023-03-18T06:00:37;7.50;;;3.40;;
77234;SDS011;66253;50.526;14.974;2023-03-18T06:03:13;5.30;;;2.20;;
77234;SDS011;66253;50.526;14.974;2023-03-18T06:05:42;5.40;;;2.00;;
77234;SDS011;66253;50.526;14.974;2023-03-18T06:08:08;6.30;;;2.00;;
77234;SDS011;66253;50.526;14.974;2023-03-18T06:10:42;7.20;;;2.80;;
77234;SDS011;66253;50.526;14.974;2023-03-18T06:13:24;5.60;;;2.60;;
77234;SDS011;66253;50.526;14.974;2023-03-18T06:15:56;7.90;;;2.80;;
77234;SDS011;66253;50.526;14.974;2023-03-18T06:18:23;7.00;;;2.40;;
77234;SDS011;66253;50.526;14.974;2023-03-18T06:20:50;7.00;;;3.00;;
77234;SDS011;66253;50.526;14.974;2023-03-18T06:23:18;7.00;;;2.30;;
77234;SDS011;66253;50.526;14.974;2023-03-18T06:25:45;6.60;;;2.30;;
77234;SDS011;66253;50.526;14.974;2023-03-18T06:28:23;6.30;;;2.50;;
77234;SDS011;66253;50.526;14.974;2023-03-18T06:30:56;6.10;;;2.60;;
77234;SDS011;66253;50.526;14.974;2023-03-18T06:33:36;8.80;;;2.80;;
77234;SDS011;66253;50.526;14.974;2023-03-18T06:36:07;6.00;;;2.60;;
77234;SDS011;66253;50.526;14.974;2023-03-18T06:38:37;7.20;;;3.00;;
77234;SDS011;66253;50.526;14.974;2023-03-18T06:41:03;6.70;;;2.90;;
77234;SDS011;66253;50.526;14.974;2023-03-18T06:43:29;10.70;;;3.80;;
77234;SDS011;66253;50.526;14.974;2023-03-18T06:45:55;8.10;;;4.70;;
77234;SDS011;66253;50.526;14.974;2023-03-18T06:48:21;6.70;;;3.40;;
77234;SDS011;66253;50.526;14.974;2023-03-18T06:50:47;8.20;;;3.70;;
77234;SDS011;66253;50.526;14.974;2023-03-18T06:53:16;7.30;;;2.70;;
77234;SDS011;66253;50.526;14.974;2023-03-18T06:55:49;18.10;;;7.70;;
77234;SDS011;66253;50.526;14.974;2023-03-18T06:58:15;6.50;;;2.80;;
77234;SDS011;66253;50.526;14.974;2023-03-18T07:00:44;9.10;;;3.30;;
77234;SDS011;66253;50.526;14.974;2023-03-18T07:03:11;9.00;;;2.90;;
77234;SDS011;66253;50.526;14.974;2023-03-18T07:05:39;8.40;;;3.50;;
77234;SDS011;66253;50.526;14.974;2023-03-18T07:08:09;8.10;;;3.50;;
77234;SDS011;66253;50.526;14.974;2023-03-18T07:10:35;5.30;;;2.40;;
77234;SDS011;66253;50.526;14.974;2023-03-18T07:13:01;6.90;;;2.90;;
77234;SDS011;66253;50.526;14.974;2023-03-18T07:15:27;6.70;;;2.60;;
77234;SDS011;66253;50.526;14.974;2023-03-18T07:17:55;6.90;;;3.80;;
77234;SDS011;66253;50.526;14.974;2023-03-18T07:20:21;9.20;;;3.50;;
77234;SDS011;66253;50.526;14.974;2023-03-18T07:23:03;7.40;;;3.40;;
77234;SDS011;66253;50.526;14.974;2023-03-18T07:25:29;9.60;;;4.50;;
77234;SDS011;66253;50.526;14.974;2023-03-18T07:27:57;8.70;;;3.20;;
77234;SDS011;66253;50.526;14.974;2023-03-18T07:30:25;8.10;;;3.90;;
77234;SDS011;66253;50.526;14.974;2023-03-18T07:32:51;8.00;;;3.50;;
77234;SDS011;66253;50.526;14.974;2023-03-18T07:35:17;6.20;;;3.20;;
77234;SDS011;66253;50.526;14.974;2023-03-18T07:37:43;6.70;;;3.50;;
77234;SDS011;66253;50.526;14.974;2023-03-18T07:40:09;7.20;;;3.60;;
77234;SDS011;66253;50.526;14.974;2023-03-18T07:42:36;8.90;;;3.40;;
77234;SDS011;66253;50.526;14.974;2023-03-18T07:45:03;9.20;;;4.00;;
77234;SDS011;66253;50.526;14.974;2023-03-18T07:47:30;6.40;;;2.50;;
77234;SDS011;66253;50.526;14.974;2023-03-18T07:49:59;6.20;;;3.20;;
77234;SDS011;66253;50.526;14.974;2023-03-18T07:52:39;7.90;;;2.70;;
77234;SDS011;66253;50.526;14.974;2023-03-18T07:55:05;6.90;;;3.80;;
77234;SDS011;66253;50.526;14.974;2023-03-18T07:57:33;6.90;;;2.80;;
77234;SDS011;66253;50.526;14.974;2023-03-18T07:59:59;7.40;;;2.30;;
77234;SDS011;66253;50.526;14.974;2023-03-18T08:02:27;8.20;;;3.00;;
77234;SDS011;66253;50.526;14.974;2023-03-18T08:04:53;9.90;;;3.60;;
77234;SDS011;66253;50.526;14.974;2023-03-18T08:07:19;8.40;;;3.50;;
77234;SDS011;66253;50.526;14.974;2023-03-18T08:09:58;8.40;;;3.70;;
77234;SDS011;66253;50.526;14.974;2023-03-18T08:12:23;8.60;;;3.50;;
77234;SDS011;66253;50.526;14.974;2023-03-18T08:14:50;8.00;;;3.30;;
77234;SDS011;66253;50.526;14.974;2023-03-18T08:17:16;8.30;;;3.60;;
77234;SDS011;66253;50.526;14.974;2023-03-18T08:19:42;6.90;;;3.30;;
77234;SDS011;66253;50.526;14.974;2023-03-18T08:22:10;6.80;;;3.60;;
77234;SDS011;66253;50.526;14.974;2023-03-18T08:24:36;7.50;;;3.40;;
77234;SDS011;66253;50.526;14.974;2023-03-18T08:27:03;6.80;;;3.30;;
77234;SDS011;66253;50.526;14.974;2023-03-18T08:29:29;7.20;;;3.40;;
77234;SDS011;66253;50.526;14.974;2023-03-18T08:31:57;5.50;;;2.60;;
77234;SDS011;66253;50.526;14.974;2023-03-18T08:34:23;7.60;;;2.90;;
77234;SDS011;66253;50.526;14.974;2023-03-18T08:36:52;7.70;;;3.50;;
77234;SDS011;66253;50.526;14.974;2023-03-18T08:39:28;8.20;;;3.00;;
77234;SDS011;66253;50.526;14.974;2023-03-18T08:41:53;9.30;;;3.20;;
77234;SDS011;66253;50.526;14.974;2023-03-18T08:44:19;9.90;;;3.40;;
77234;SDS011;66253;50.526;14.974;2023-03-18T08:46:45;8.00;;;3.00;;
77234;SDS011;66253;50.526;14.974;2023-03-18T08:49:11;7.20;;;3.10;;
77234;SDS011;66253;50.526;14.974;2023-03-18T08:51:38;8.60;;;3.50;;
77234;SDS011;66253;50.526;14.974;2023-03-18T08:54:07;7.50;;;3.60;;
77234;SDS011;66253;50.526;14.974;2023-03-18T08:56:58;7.90;;;3.60;;
77234;SDS011;66253;50.526;14.974;2023-03-18T08:59:24;7.00;;;3.20;;
77234;SDS011;66253;50.526;14.974;2023-03-18T09:01:52;7.70;;;3.70;;
77234;SDS011;66253;50.526;14.974;2023-03-18T09:07:26;7.90;;;3.70;;
77234;SDS011;66253;50.526;14.974;2023-03-18T09:09:57;10.10;;;4.20;;
77234;SDS011;66253;50.526;14.974;2023-03-18T09:12:25;10.90;;;7.20;;
77234;SDS011;66253;50.526;14.974;2023-03-18T09:14:53;8.20;;;3.80;;
77234;SDS011;66253;50.526;14.974;2023-03-18T09:17:26;7.30;;;3.80;;
77234;SDS011;66253;50.526;14.974;2023-03-18T09:19:52;9.90;;;6.30;;
77234;SDS011;66253;50.526;14.974;2023-03-18T09:22:18;9.90;;;4.40;;
77234;SDS011;66253;50.526;14.974;2023-03-18T09:24:43;6.80;;;3.50;;
77234;SDS011;66253;50.526;14.974;2023-03-18T09:27:09;7.30;;;3.40;;
77234;SDS011;66253;50.526;14.974;2023-03-18T09:29:35;9.10;;;4.70;;
77234;SDS011;66253;50.526;14.974;2023-03-18T09:32:03;8.80;;;3.80;;
77234;SDS011;66253;50.526;14.974;2023-03-18T09:43:13;9.40;;;4.40;;
77234;SDS011;66253;50.526;14.974;2023-03-18T09:45:59;8.30;;;3.90;;
77234;SDS011;66253;50.526;14.974;2023-03-18T09:55:26;9.60;;;4.10;;
77234;SDS011;66253;50.526;14.974;2023-03-18T10:00:40;10.30;;;4.70;;
77234;SDS011;66253;50.526;14.974;2023-03-18T10:03:27;9.20;;;4.60;;
77234;SDS011;66253;50.526;14.974;2023-03-18T10:06:04;8.50;;;4.20;;
77234;SDS011;66253;50.526;14.974;2023-03-18T10:08:45;11.70;;;4.20;;
77234;SDS011;66253;50.526;14.974;2023-03-18T10:11:25;11.60;;;4.50;;
77234;SDS011;66253;50.526;14.974;2023-03-18T10:20:04;15.80;;;5.90;;
77234;SDS011;66253;50.526;14.974;2023-03-18T10:22:49;10.30;;;4.80;;
77234;SDS011;66253;50.526;14.974;2023-03-18T10:40:25;8.10;;;4.40;;
77234;SDS011;66253;50.526;14.974;2023-03-18T10:42:53;10.20;;;5.40;;
77234;SDS011;66253;50.526;14.974;2023-03-18T10:48:10;7.40;;;3.70;;
77234;SDS011;66253;50.526;14.974;2023-03-18T10:50:48;7.30;;;3.40;;
77234;SDS011;66253;50.526;14.974;2023-03-18T10:53:38;8.80;;;5.30;;
77234;SDS011;66253;50.526;14.974;2023-03-18T10:56:13;8.80;;;3.70;;
77234;SDS011;66253;50.526;14.974;2023-03-18T10:58:40;9.80;;;4.70;;
77234;SDS011;66253;50.526;14.974;2023-03-18T11:01:08;10.50;;;4.00;;
77234;SDS011;66253;50.526;14.974;2023-03-18T11:03:43;9.10;;;4.50;;
77234;SDS011;66253;50.526;14.974;2023-03-18T11:06:23;8.00;;;4.70;;
77234;SDS011;66253;50.526;14.974;2023-03-18T11:09:04;8.40;;;4.30;;
77234;SDS011;66253;50.526;14.974;2023-03-18T11:11:33;8.00;;;3.70;;
77234;SDS011;66253;50.526;14.974;2023-03-18T11:14:01;7.70;;;4.30;;
77234;SDS011;66253;50.526;14.974;2023-03-18T11:16:32;8.10;;;5.40;;
77234;SDS011;66253;50.526;14.974;2023-03-18T11:24:44;10.50;;;5.60;;
77234;SDS011;66253;50.526;14.974;2023-03-18T11:29:48;8.60;;;4.90;;
77234;SDS011;66253;50.526;14.974;2023-03-18T11:32:29;9.10;;;4.50;;
77234;SDS011;66253;50.526;14.974;2023-03-18T11:34:59;11.10;;;4.60;;
77234;SDS011;66253;50.526;14.974;2023-03-18T11:37:28;12.20;;;5.60;;
77234;SDS011;66253;50.526;14.974;2023-03-18T11:42:41;9.00;;;4.90;;
77234;SDS011;66253;50.526;14.974;2023-03-18T11:45:22;11.90;;;5.40;;
77234;SDS011;66253;50.526;14.974;2023-03-18T11:47:54;9.30;;;5.10;;
77234;SDS011;66253;50.526;14.974;2023-03-18T11:50:22;10.30;;;5.20;;
77234;SDS011;66253;50.526;14.974;2023-03-18T11:52:53;11.50;;;5.90;;
77234;SDS011;66253;50.526;14.974;2023-03-18T11:55:46;11.50;;;6.30;;
77234;SDS011;66253;50.526;14.974;2023-03-18T11:58:25;10.30;;;4.40;;
77234;SDS011;66253;50.526;14.974;2023-03-18T12:04:03;10.00;;;5.40;;
77234;SDS011;66253;50.526;14.974;2023-03-18T12:09:41;9.60;;;4.90;;
77234;SDS011;66253;50.526;14.974;2023-03-18T12:12:26;6.90;;;3.50;;
77234;SDS011;66253;50.526;14.974;2023-03-18T12:20:56;9.30;;;4.50;;
77234;SDS011;66253;50.526;14.974;2023-03-18T12:32:13;10.40;;;4.90;;
77234;SDS011;66253;50.526;14.974;2023-03-18T12:34:54;9.80;;;4.90;;
77234;SDS011;66253;50.526;14.974;2023-03-18T12:40:14;10.70;;;5.50;;
77234;SDS011;66253;50.526;14.974;2023-03-18T12:42:59;9.70;;;5.00;;
77234;SDS011;66253;50.526;14.974;2023-03-18T12:45:43;8.80;;;5.10;;
77234;SDS011;66253;50.526;14.974;2023-03-18T12:48:13;9.00;;;4.60;;
77234;SDS011;66253;50.526;14.974;2023-03-18T12:50:44;10.10;;;5.10;;
77234;SDS011;66253;50.526;14.974;2023-03-18T12:53:17;10.00;;;6.00;;
77234;SDS011;66253;50.526;14.974;2023-03-18T12:55:59;11.00;;;6.30;;
77234;SDS011;66253;50.526;14.974;2023-03-18T12:58:30;9.00;;;4.70;;
77234;SDS011;66253;50.526;14.974;2023-03-18T13:01:10;10.60;;;6.00;;
77234;SDS011;66253;50.526;14.974;2023-03-18T13:03:47;10.20;;;4.80;;
77234;SDS011;66253;50.526;14.974;2023-03-18T13:09:04;9.90;;;5.10;;
77234;SDS011;66253;50.526;14.974;2023-03-18T13:23:24;11.80;;;6.00;;
77234;SDS011;66253;50.526;14.974;2023-03-18T13:26:20;11.50;;;5.60;;
77234;SDS011;66253;50.526;14.974;2023-03-18T13:37:52;11.80;;;5.50;;
77234;SDS011;66253;50.526;14.974;2023-03-18T13:44:00;10.90;;;5.30;;
77234;SDS011;66253;50.526;14.974;2023-03-18T13:46:53;12.60;;;6.90;;
77234;SDS011;66253;50.526;14.974;2023-03-18T13:49:27;10.30;;;5.20;;
77234;SDS011;66253;50.526;14.974;2023-03-18T13:52:04;11.50;;;7.10;;
77234;SDS011;66253;50.526;14.974;2023-03-18T13:54:59;12.40;;;5.80;;
77234;SDS011;66253;50.526;14.974;2023-03-18T13:57:31;16.30;;;6.50;;
77234;SDS011;66253;50.526;14.974;2023-03-18T14:00:11;11.70;;;5.70;;
77234;SDS011;66253;50.526;14.974;2023-03-18T14:03:25;11.30;;;6.00;;
77234;SDS011;66253;50.526;14.974;2023-03-18T14:13:54;13.80;;;6.20;;
77234;SDS011;66253;50.526;14.974;2023-03-18T14:16:27;11.30;;;6.20;;
77234;SDS011;66253;50.526;14.974;2023-03-18T14:18:55;12.10;;;6.70;;
77234;SDS011;66253;50.526;14.974;2023-03-18T14:21:27;10.80;;;5.60;;
77234;SDS011;66253;50.526;14.974;2023-03-18T14:34:59;13.70;;;6.30;;
77234;SDS011;66253;50.526;14.974;2023-03-18T14:40:40;18.70;;;9.40;;
77234;SDS011;66253;50.526;14.974;2023-03-18T14:43:14;13.10;;;7.00;;
77234;SDS011;66253;50.526;14.974;2023-03-18T14:45:47;11.30;;;5.70;;
77234;SDS011;66253;50.526;14.974;2023-03-18T14:48:18;12.60;;;5.70;;
77234;SDS011;66253;50.526;14.974;2023-03-18T14:50:49;17.80;;;7.10;;
77234;SDS011;66253;50.526;14.974;2023-03-18T14:53:49;10.60;;;5.70;;
77234;SDS011;66253;50.526;14.974;2023-03-18T14:56:22;14.10;;;6.40;;
77234;SDS011;66253;50.526;14.974;2023-03-18T14:59:11;13.40;;;7.40;;
77234;SDS011;66253;50.526;14.974;2023-03-18T15:04:48;11.80;;;5.70;;
77234;SDS011;66253;50.526;14.974;2023-03-18T15:07:21;12.90;;;6.90;;
77234;SDS011;66253;50.526;14.974;2023-03-18T15:09:55;12.60;;;6.10;;
77234;SDS011;66253;50.526;14.974;2023-03-18T15:12:27;13.20;;;6.40;;
77234;SDS011;66253;50.526;14.974;2023-03-18T15:14:53;17.30;;;8.20;;
77234;SDS011;66253;50.526;14.974;2023-03-18T15:17:19;14.90;;;7.40;;
77234;SDS011;66253;50.526;14.974;2023-03-18T15:19:44;11.90;;;6.30;;
77234;SDS011;66253;50.526;14.974;2023-03-18T15:22:16;15.50;;;6.60;;
77234;SDS011;66253;50.526;14.974;2023-03-18T15:24:54;13.80;;;6.60;;
77234;SDS011;66253;50.526;14.974;2023-03-18T15:27:26;9.90;;;5.30;;
77234;SDS011;66253;50.526;14.974;2023-03-18T15:29:58;13.10;;;6.00;;
77234;SDS011;66253;50.526;14.974;2023-03-18T15:32:26;16.50;;;8.10;;
77234;SDS011;66253;50.526;14.974;2023-03-18T15:35:04;14.00;;;6.20;;
77234;SDS011;66253;50.526;14.974;2023-03-18T15:37:44;16.30;;;7.10;;
77234;SDS011;66253;50.526;14.974;2023-03-18T15:43:04;11.00;;;5.50;;
77234;SDS011;66253;50.526;14.974;2023-03-18T15:45:46;13.70;;;7.60;;
77234;SDS011;66253;50.526;14.974;2023-03-18T15:48:26;14.70;;;6.80;;
77234;SDS011;66253;50.526;14.974;2023-03-18T15:50:59;16.50;;;7.10;;
77234;SDS011;66253;50.526;14.974;2023-03-18T15:53:49;10.10;;;4.70;;
77234;SDS011;66253;50.526;14.974;2023-03-18T15:56:49;10.70;;;5.50;;
77234;SDS011;66253;50.526;14.974;2023-03-18T15:59:13;12.90;;;5.40;;
77234;SDS011;66253;50.526;14.974;2023-03-18T16:01:43;14.90;;;6.90;;
77234;SDS011;66253;50.526;14.974;2023-03-18T16:04:31;13.00;;;6.60;;
77234;SDS011;66253;50.526;14.974;2023-03-18T16:06:58;17.80;;;8.00;;
77234;SDS011;66253;50.526;14.974;2023-03-18T16:09:24;14.00;;;6.50;;
77234;SDS011;66253;50.526;14.974;2023-03-18T16:11:51;13.20;;;6.60;;
77234;SDS011;66253;50.526;14.974;2023-03-18T16:14:24;12.60;;;6.20;;
77234;SDS011;66253;50.526;14.974;2023-03-18T16:17:04;15.00;;;7.00;;
77234;SDS011;66253;50.526;14.974;2023-03-18T16:19:32;13.70;;;6.30;;
77234;SDS011;66253;50.526;14.974;2023-03-18T16:21:58;14.60;;;6.70;;
77234;SDS011;66253;50.526;14.974;2023-03-18T16:24:24;14.50;;;8.30;;
77234;SDS011;66253;50.526;14.974;2023-03-18T16:29:35;14.60;;;7.70;;
77234;SDS011;66253;50.526;14.974;2023-03-18T16:32:04;13.60;;;6.20;;
77234;SDS011;66253;50.526;14.974;2023-03-18T16:34:30;11.90;;;7.20;;
77234;SDS011;66253;50.526;14.974;2023-03-18T16:36:59;13.90;;;6.60;;
77234;SDS011;66253;50.526;14.974;2023-03-18T16:39:29;18.40;;;8.80;;
77234;SDS011;66253;50.526;14.974;2023-03-18T16:42:01;20.90;;;10.30;;
77234;SDS011;66253;50.526;14.974;2023-03-18T16:44:30;28.80;;;16.40;;
77234;SDS011;66253;50.526;14.974;2023-03-18T16:47:05;17.10;;;9.10;;
77234;SDS011;66253;50.526;14.974;2023-03-18T16:49:39;18.40;;;10.70;;
77234;SDS011;66253;50.526;14.974;2023-03-18T16:52:08;21.60;;;12.30;;
77234;SDS011;66253;50.526;14.974;2023-03-18T16:54:38;13.70;;;7.60;;
77234;SDS011;66253;50.526;14.974;2023-03-18T16:57:05;14.10;;;7.70;;
77234;SDS011;66253;50.526;14.974;2023-03-18T16:59:38;16.90;;;10.20;;
77234;SDS011;66253;50.526;14.974;2023-03-18T17:02:04;16.70;;;7.90;;
77234;SDS011;66253;50.526;14.974;2023-03-18T17:04:48;18.40;;;8.80;;
77234;SDS011;66253;50.526;14.974;2023-03-18T17:07:13;22.00;;;10.00;;
77234;SDS011;66253;50.526;14.974;2023-03-18T17:09:39;41.60;;;17.00;;
77234;SDS011;66253;50.526;14.974;2023-03-18T17:12:05;36.90;;;14.50;;
77234;SDS011;66253;50.526;14.974;2023-03-18T17:14:35;26.10;;;10.70;;
77234;SDS011;66253;50.526;14.974;2023-03-18T17:17:10;31.40;;;14.10;;
77234;SDS011;66253;50.526;14.974;2023-03-18T17:19:54;31.50;;;15.90;;
77234;SDS011;66253;50.526;14.974;2023-03-18T17:22:24;26.60;;;12.10;;
77234;SDS011;66253;50.526;14.974;2023-03-18T17:24:52;29.30;;;12.40;;
77234;SDS011;66253;50.526;14.974;2023-03-18T17:27:19;28.90;;;10.70;;
77234;SDS011;66253;50.526;14.974;2023-03-18T17:29:47;18.70;;;9.40;;
77234;SDS011;66253;50.526;14.974;2023-03-18T17:32:13;17.50;;;7.60;;
77234;SDS011;66253;50.526;14.974;2023-03-18T17:34:40;21.90;;;9.40;;
77234;SDS011;66253;50.526;14.974;2023-03-18T17:37:07;23.50;;;9.20;;
77234;SDS011;66253;50.526;14.974;2023-03-18T17:39:33;25.70;;;11.40;;